KLM1128 EKCH-EHAM
Flight info
| Callsign | KLM1128 |
|---|---|
| Flight time | 1h 6m |
| Altitude | 36000 |
| Route | LANGO M611 ALASA DCT WANZA N872 KUBAT T200 BLUFA |
| Aircraft | B738/M-SDE2E3FGHIRWXY/LB1 |
Departure
| Time | 2026-05-04 12:59 |
|---|---|
| Airport | Copenhagen Kastrup Airport (EKCH) |
Arrival
| Time | 2026-05-04 14:06 |
|---|---|
| Airport | Amsterdam Airport Schiphol (EHAM) |
| Time | Latitude | Longitude | Altitude | Speed | Heading |
|---|---|---|---|---|---|
| 2026-05-04 12:28 | 55.62646 | 12.64560 | 20 ft | 0 kts | 281° |
| 2026-05-04 12:50 | 55.62645 | 12.64569 | 20 ft | 4 kts | 280° |
| 2026-05-04 12:50 | 55.62642 | 12.64615 | 19 ft | 4 kts | 266° |
| 2026-05-04 12:51 | 55.62647 | 12.64662 | 23 ft | 4 kts | 248° |
| 2026-05-04 12:51 | 55.62652 | 12.64680 | 21 ft | 0 kts | 243° |
| 2026-05-04 12:54 | 55.62650 | 12.64677 | 19 ft | 2 kts | 233° |
| 2026-05-04 12:54 | 55.62626 | 12.64669 | 19 ft | 5 kts | 186° |
| 2026-05-04 12:55 | 55.62590 | 12.64663 | 18 ft | 5 kts | 186° |
| 2026-05-04 12:55 | 55.62553 | 12.64656 | 19 ft | 5 kts | 186° |
| 2026-05-04 12:55 | 55.62516 | 12.64654 | 20 ft | 6 kts | 175° |
| 2026-05-04 12:55 | 55.62467 | 12.64667 | 21 ft | 9 kts | 169° |
| 2026-05-04 12:56 | 55.62392 | 12.64679 | 21 ft | 13 kts | 176° |
| 2026-05-04 12:56 | 55.62302 | 12.64616 | 19 ft | 15 kts | 239° |
| 2026-05-04 12:56 | 55.62258 | 12.64439 | 18 ft | 16 kts | 244° |
| 2026-05-04 12:56 | 55.62158 | 12.64311 | 17 ft | 19 kts | 207° |
| 2026-05-04 12:57 | 55.62040 | 12.64217 | 21 ft | 18 kts | 205° |
| 2026-05-04 12:57 | 55.61927 | 12.64121 | 24 ft | 18 kts | 205° |
| 2026-05-04 12:57 | 55.61811 | 12.64075 | 29 ft | 18 kts | 176° |
| 2026-05-04 12:57 | 55.61683 | 12.64087 | 26 ft | 18 kts | 177° |
| 2026-05-04 12:58 | 55.61603 | 12.64036 | 29 ft | 0 kts | 219° |
| 2026-05-04 12:59 | 55.61590 | 12.64017 | 27 ft | 21 kts | 219° |
| 2026-05-04 12:59 | 55.61189 | 12.63430 | 27 ft | 124 kts | 225° |
| 2026-05-04 12:59 | 55.60388 | 12.62191 | 553 ft | 162 kts | 224° |
| 2026-05-04 12:59 | 55.59585 | 12.60925 | 2056 ft | 147 kts | 227° |
| 2026-05-04 13:00 | 55.58823 | 12.59738 | 3316 ft | 151 kts | 227° |
| 2026-05-04 13:00 | 55.57987 | 12.58449 | 4124 ft | 168 kts | 226° |
| 2026-05-04 13:00 | 55.57039 | 12.56989 | 4696 ft | 197 kts | 226° |
| 2026-05-04 13:00 | 55.56167 | 12.54921 | 4998 ft | 225 kts | 252° |
| 2026-05-04 13:01 | 55.55528 | 12.52229 | 5553 ft | 246 kts | 243° |
| 2026-05-04 13:01 | 55.54625 | 12.49626 | 6558 ft | 250 kts | 240° |
| 2026-05-04 13:01 | 55.53673 | 12.47046 | 7542 ft | 252 kts | 239° |
| 2026-05-04 13:01 | 55.52714 | 12.44447 | 8557 ft | 254 kts | 239° |
| 2026-05-04 13:02 | 55.51750 | 12.41807 | 9559 ft | 257 kts | 239° |
| 2026-05-04 13:02 | 55.50794 | 12.39163 | 10387 ft | 265 kts | 239° |
| 2026-05-04 13:02 | 55.49760 | 12.36275 | 10642 ft | 293 kts | 239° |
| 2026-05-04 13:02 | 55.48635 | 12.33117 | 11092 ft | 310 kts | 239° |
| 2026-05-04 13:03 | 55.47476 | 12.29859 | 11885 ft | 316 kts | 240° |
| 2026-05-04 13:03 | 55.46305 | 12.26564 | 12808 ft | 319 kts | 240° |
| 2026-05-04 13:03 | 55.45123 | 12.23234 | 13682 ft | 323 kts | 240° |
| 2026-05-04 13:03 | 55.43926 | 12.19858 | 14453 ft | 327 kts | 240° |
| 2026-05-04 13:04 | 55.42714 | 12.16445 | 15277 ft | 329 kts | 240° |
| 2026-05-04 13:04 | 55.41500 | 12.13027 | 16093 ft | 331 kts | 240° |
| 2026-05-04 13:04 | 55.40270 | 12.09566 | 16880 ft | 335 kts | 240° |
| 2026-05-04 13:04 | 55.39028 | 12.06075 | 17649 ft | 338 kts | 240° |
| 2026-05-04 13:05 | 55.37789 | 12.02598 | 18382 ft | 342 kts | 240° |
| 2026-05-04 13:05 | 55.36504 | 11.98996 | 19075 ft | 344 kts | 240° |
| 2026-05-04 13:05 | 55.35226 | 11.95419 | 19758 ft | 347 kts | 240° |
| 2026-05-04 13:05 | 55.33937 | 11.91817 | 20426 ft | 350 kts | 240° |
| 2026-05-04 13:06 | 55.32651 | 11.88228 | 21081 ft | 352 kts | 240° |
| 2026-05-04 13:06 | 55.31340 | 11.84574 | 21740 ft | 355 kts | 240° |
| 2026-05-04 13:06 | 55.30017 | 11.80893 | 22379 ft | 358 kts | 240° |
| 2026-05-04 13:06 | 55.28682 | 11.77181 | 22984 ft | 361 kts | 240° |
| 2026-05-04 13:07 | 55.27331 | 11.73431 | 23592 ft | 364 kts | 239° |
| 2026-05-04 13:07 | 55.25972 | 11.69668 | 24114 ft | 366 kts | 239° |
| 2026-05-04 13:07 | 55.24603 | 11.65893 | 24650 ft | 368 kts | 239° |
| 2026-05-04 13:07 | 55.23216 | 11.62113 | 25179 ft | 370 kts | 239° |
| 2026-05-04 13:08 | 55.21812 | 11.58311 | 25652 ft | 372 kts | 239° |
| 2026-05-04 13:08 | 55.20404 | 11.54506 | 26143 ft | 374 kts | 239° |
| 2026-05-04 13:08 | 55.18979 | 11.50660 | 26630 ft | 376 kts | 239° |
| 2026-05-04 13:08 | 55.17553 | 11.46814 | 27110 ft | 378 kts | 239° |
| 2026-05-04 13:09 | 55.16120 | 11.42949 | 27557 ft | 380 kts | 239° |
| 2026-05-04 13:09 | 55.14678 | 11.39066 | 28005 ft | 382 kts | 239° |
| 2026-05-04 13:09 | 55.13227 | 11.35166 | 28449 ft | 384 kts | 239° |
| 2026-05-04 13:09 | 55.11772 | 11.31260 | 28873 ft | 385 kts | 239° |
| 2026-05-04 13:10 | 55.10306 | 11.27329 | 29286 ft | 387 kts | 239° |
| 2026-05-04 13:10 | 55.08848 | 11.23427 | 29690 ft | 389 kts | 239° |
| 2026-05-04 13:10 | 55.07348 | 11.19417 | 30104 ft | 390 kts | 239° |
| 2026-05-04 13:10 | 55.05866 | 11.15463 | 30507 ft | 389 kts | 238° |
| 2026-05-04 13:11 | 55.04402 | 11.11565 | 30879 ft | 389 kts | 238° |
| 2026-05-04 13:11 | 55.02916 | 11.07613 | 31234 ft | 390 kts | 238° |
| 2026-05-04 13:11 | 55.01427 | 11.03657 | 31604 ft | 390 kts | 238° |
| 2026-05-04 13:11 | 54.99936 | 10.99704 | 31973 ft | 391 kts | 238° |
| 2026-05-04 13:12 | 54.98443 | 10.95748 | 32330 ft | 391 kts | 238° |
| 2026-05-04 13:12 | 54.96947 | 10.91792 | 32675 ft | 392 kts | 238° |
| 2026-05-04 13:12 | 54.95448 | 10.87830 | 33013 ft | 392 kts | 239° |
| 2026-05-04 13:12 | 54.94241 | 10.83594 | 33321 ft | 392 kts | 252° |
| 2026-05-04 13:13 | 54.93502 | 10.79030 | 33663 ft | 392 kts | 255° |
| 2026-05-04 13:13 | 54.92832 | 10.74421 | 33963 ft | 394 kts | 255° |
| 2026-05-04 13:13 | 54.92169 | 10.69794 | 34223 ft | 395 kts | 255° |
| 2026-05-04 13:13 | 54.91497 | 10.65156 | 34476 ft | 396 kts | 255° |
| 2026-05-04 13:14 | 54.90812 | 10.60507 | 34728 ft | 398 kts | 255° |
| 2026-05-04 13:14 | 54.90116 | 10.55851 | 34984 ft | 399 kts | 255° |
| 2026-05-04 13:14 | 54.89411 | 10.51188 | 35235 ft | 400 kts | 255° |
| 2026-05-04 13:14 | 54.88700 | 10.46516 | 35482 ft | 401 kts | 255° |
| 2026-05-04 13:15 | 54.87984 | 10.41834 | 35738 ft | 401 kts | 255° |
| 2026-05-04 13:15 | 54.87264 | 10.37146 | 35989 ft | 402 kts | 255° |
| 2026-05-04 13:15 | 54.86541 | 10.32447 | 36231 ft | 403 kts | 255° |
| 2026-05-04 13:15 | 54.85814 | 10.27731 | 36488 ft | 404 kts | 255° |
| 2026-05-04 13:16 | 54.85087 | 10.23031 | 36720 ft | 405 kts | 255° |
| 2026-05-04 13:16 | 54.84353 | 10.18299 | 36956 ft | 406 kts | 255° |
| 2026-05-04 13:16 | 54.83619 | 10.13572 | 37210 ft | 406 kts | 255° |
| 2026-05-04 13:16 | 54.82892 | 10.08907 | 37451 ft | 406 kts | 255° |
| 2026-05-04 13:17 | 54.82152 | 10.04174 | 37675 ft | 407 kts | 255° |
| 2026-05-04 13:17 | 54.81396 | 9.99441 | 37908 ft | 407 kts | 252° |
| 2026-05-04 13:17 | 54.80370 | 9.94846 | 37977 ft | 411 kts | 245° |
| 2026-05-04 13:18 | 54.77404 | 9.86333 | 37978 ft | 412 kts | 239° |
| 2026-05-04 13:18 | 54.74327 | 9.78025 | 37982 ft | 408 kts | 239° |
| 2026-05-04 13:19 | 54.71287 | 9.69772 | 37983 ft | 405 kts | 239° |
| 2026-05-04 13:19 | 54.68270 | 9.61552 | 37983 ft | 404 kts | 239° |
| 2026-05-04 13:20 | 54.65260 | 9.53356 | 37989 ft | 404 kts | 239° |
| 2026-05-04 13:20 | 54.62245 | 9.45170 | 37997 ft | 404 kts | 239° |
| 2026-05-04 13:21 | 54.59217 | 9.36979 | 38001 ft | 405 kts | 239° |
| 2026-05-04 13:21 | 54.56194 | 9.28829 | 37990 ft | 407 kts | 239° |
| 2026-05-04 13:22 | 54.53131 | 9.20598 | 37992 ft | 408 kts | 238° |
| 2026-05-04 13:22 | 54.50050 | 9.12346 | 37996 ft | 410 kts | 238° |
| 2026-05-04 13:23 | 54.46960 | 9.04096 | 38003 ft | 411 kts | 238° |
| 2026-05-04 13:23 | 54.43851 | 8.95826 | 38000 ft | 412 kts | 238° |
| 2026-05-04 13:24 | 54.40734 | 8.87561 | 37999 ft | 412 kts | 238° |
| 2026-05-04 13:24 | 54.37611 | 8.79306 | 38006 ft | 412 kts | 238° |
| 2026-05-04 13:25 | 54.32917 | 8.66953 | 38008 ft | 411 kts | 238° |
| 2026-05-04 13:25 | 54.29791 | 8.58756 | 38009 ft | 411 kts | 238° |
| 2026-05-04 13:26 | 54.26667 | 8.50589 | 38013 ft | 410 kts | 238° |
| 2026-05-04 13:26 | 54.23559 | 8.42503 | 38012 ft | 409 kts | 237° |
| 2026-05-04 13:27 | 54.19775 | 8.35228 | 38024 ft | 411 kts | 225° |
| 2026-05-04 13:27 | 54.15594 | 8.28582 | 38011 ft | 410 kts | 225° |
| 2026-05-04 13:28 | 54.11439 | 8.21898 | 38017 ft | 410 kts | 225° |
| 2026-05-04 13:28 | 54.08002 | 8.16340 | 38016 ft | 410 kts | 225° |
| 2026-05-04 13:29 | 54.03875 | 8.09652 | 38023 ft | 410 kts | 225° |
| 2026-05-04 13:29 | 53.99746 | 8.02974 | 38020 ft | 410 kts | 225° |
| 2026-05-04 13:30 | 53.95603 | 7.96324 | 38019 ft | 410 kts | 225° |
| 2026-05-04 13:30 | 53.91445 | 7.89705 | 38016 ft | 410 kts | 225° |
| 2026-05-04 13:31 | 53.87282 | 7.83097 | 38017 ft | 410 kts | 225° |
| 2026-05-04 13:31 | 53.83114 | 7.76492 | 38019 ft | 410 kts | 225° |
| 2026-05-04 13:32 | 53.78952 | 7.69913 | 38018 ft | 410 kts | 225° |
| 2026-05-04 13:32 | 53.74783 | 7.63341 | 38021 ft | 410 kts | 225° |
| 2026-05-04 13:33 | 53.72696 | 7.60058 | 37884 ft | 412 kts | 225° |
| 2026-05-04 13:33 | 53.70589 | 7.56749 | 37485 ft | 412 kts | 225° |
| 2026-05-04 13:33 | 53.68534 | 7.53527 | 37052 ft | 406 kts | 225° |
| 2026-05-04 13:33 | 53.66479 | 7.50310 | 36688 ft | 400 kts | 225° |
| 2026-05-04 13:34 | 53.64449 | 7.47137 | 36281 ft | 396 kts | 225° |
| 2026-05-04 13:34 | 53.62444 | 7.44005 | 35903 ft | 391 kts | 225° |
| 2026-05-04 13:34 | 53.60455 | 7.40903 | 35501 ft | 387 kts | 225° |
| 2026-05-04 13:34 | 53.58495 | 7.37850 | 35111 ft | 383 kts | 225° |
| 2026-05-04 13:35 | 53.56551 | 7.34826 | 34734 ft | 379 kts | 225° |
| 2026-05-04 13:35 | 53.52723 | 7.28881 | 33971 ft | 371 kts | 225° |
| 2026-05-04 13:35 | 53.50838 | 7.25959 | 33537 ft | 367 kts | 225° |
| 2026-05-04 13:36 | 53.48976 | 7.23077 | 33171 ft | 361 kts | 225° |
| 2026-05-04 13:36 | 53.47755 | 7.21189 | 32924 ft | 358 kts | 225° |
| 2026-05-04 13:36 | 53.45325 | 7.17435 | 32433 ft | 352 kts | 225° |
| 2026-05-04 13:36 | 53.43593 | 7.14764 | 32085 ft | 348 kts | 225° |
| 2026-05-04 13:37 | 53.41897 | 7.12150 | 31746 ft | 344 kts | 225° |
| 2026-05-04 13:37 | 53.40149 | 7.09458 | 31373 ft | 340 kts | 225° |
| 2026-05-04 13:37 | 53.38410 | 7.06783 | 31007 ft | 337 kts | 225° |
| 2026-05-04 13:37 | 53.36691 | 7.04143 | 30650 ft | 334 kts | 225° |
| 2026-05-04 13:38 | 53.34987 | 7.01530 | 30285 ft | 331 kts | 225° |
| 2026-05-04 13:38 | 53.33284 | 6.98954 | 29912 ft | 328 kts | 223° |
| 2026-05-04 13:38 | 53.31571 | 6.96571 | 29603 ft | 323 kts | 221° |
| 2026-05-04 13:38 | 53.29829 | 6.94248 | 29334 ft | 317 kts | 221° |
| 2026-05-04 13:39 | 53.28096 | 6.91959 | 29069 ft | 318 kts | 221° |
| 2026-05-04 13:39 | 53.26345 | 6.89645 | 28781 ft | 324 kts | 221° |
| 2026-05-04 13:39 | 53.24568 | 6.87289 | 28498 ft | 328 kts | 221° |
| 2026-05-04 13:39 | 53.22784 | 6.84923 | 28203 ft | 325 kts | 221° |
| 2026-05-04 13:40 | 53.21020 | 6.82582 | 27938 ft | 323 kts | 221° |
| 2026-05-04 13:40 | 53.15430 | 6.75159 | 27054 ft | 319 kts | 221° |
| 2026-05-04 13:41 | 53.13695 | 6.72857 | 26785 ft | 319 kts | 222° |
| 2026-05-04 13:41 | 53.11961 | 6.70560 | 26515 ft | 318 kts | 222° |
| 2026-05-04 13:41 | 53.10228 | 6.68265 | 26244 ft | 318 kts | 222° |
| 2026-05-04 13:42 | 53.06755 | 6.63673 | 25691 ft | 319 kts | 222° |
| 2026-05-04 13:42 | 53.05018 | 6.61380 | 25426 ft | 319 kts | 222° |
| 2026-05-04 13:42 | 53.03278 | 6.59085 | 25154 ft | 320 kts | 222° |
| 2026-05-04 13:42 | 53.01529 | 6.56781 | 24885 ft | 321 kts | 222° |
| 2026-05-04 13:43 | 52.99779 | 6.54478 | 24601 ft | 321 kts | 222° |
| 2026-05-04 13:43 | 52.98025 | 6.52173 | 24318 ft | 322 kts | 222° |
| 2026-05-04 13:43 | 52.96272 | 6.49872 | 24034 ft | 321 kts | 222° |
| 2026-05-04 13:43 | 52.94524 | 6.47580 | 23758 ft | 320 kts | 222° |
| 2026-05-04 13:44 | 52.92782 | 6.45297 | 23461 ft | 319 kts | 222° |
| 2026-05-04 13:44 | 52.91046 | 6.43024 | 23144 ft | 317 kts | 222° |
| 2026-05-04 13:44 | 52.89318 | 6.40763 | 22845 ft | 316 kts | 221° |
| 2026-05-04 13:44 | 52.87600 | 6.38518 | 22567 ft | 314 kts | 221° |
| 2026-05-04 13:45 | 52.85911 | 6.36316 | 22294 ft | 312 kts | 221° |
| 2026-05-04 13:45 | 52.84209 | 6.34092 | 22016 ft | 311 kts | 223° |
| 2026-05-04 13:45 | 52.82718 | 6.31461 | 21502 ft | 313 kts | 236° |
| 2026-05-04 13:45 | 52.81477 | 6.28526 | 20963 ft | 318 kts | 237° |
| 2026-05-04 13:46 | 52.80226 | 6.25481 | 20381 ft | 322 kts | 237° |
| 2026-05-04 13:46 | 52.78966 | 6.22416 | 19983 ft | 320 kts | 237° |
| 2026-05-04 13:46 | 52.77727 | 6.19420 | 19663 ft | 314 kts | 237° |
| 2026-05-04 13:46 | 52.76459 | 6.16371 | 18814 ft | 328 kts | 237° |
| 2026-05-04 13:47 | 52.75147 | 6.13237 | 18073 ft | 336 kts | 236° |
| 2026-05-04 13:47 | 52.73803 | 6.10040 | 17368 ft | 340 kts | 236° |
| 2026-05-04 13:47 | 52.72449 | 6.06831 | 16726 ft | 342 kts | 236° |
| 2026-05-04 13:47 | 52.71546 | 6.04697 | 16310 ft | 343 kts | 236° |
| 2026-05-04 13:48 | 52.70176 | 6.01462 | 15684 ft | 344 kts | 236° |
| 2026-05-04 13:48 | 52.68803 | 5.98227 | 15068 ft | 345 kts | 236° |
| 2026-05-04 13:48 | 52.67424 | 5.94982 | 14455 ft | 346 kts | 236° |
| 2026-05-04 13:48 | 52.66037 | 5.91721 | 13837 ft | 347 kts | 236° |
| 2026-05-04 13:49 | 52.64647 | 5.88459 | 13149 ft | 348 kts | 236° |
| 2026-05-04 13:49 | 52.63251 | 5.85186 | 12487 ft | 348 kts | 236° |
| 2026-05-04 13:49 | 52.61858 | 5.81923 | 11836 ft | 348 kts | 235° |
| 2026-05-04 13:49 | 52.60464 | 5.78661 | 11248 ft | 349 kts | 235° |
| 2026-05-04 13:50 | 52.59084 | 5.75438 | 10613 ft | 347 kts | 235° |
| 2026-05-04 13:50 | 52.57715 | 5.72244 | 9975 ft | 337 kts | 235° |
| 2026-05-04 13:50 | 52.56386 | 5.69147 | 9332 ft | 326 kts | 235° |
| 2026-05-04 13:50 | 52.55097 | 5.66144 | 8729 ft | 317 kts | 235° |
| 2026-05-04 13:51 | 52.53844 | 5.63230 | 8170 ft | 308 kts | 234° |
| 2026-05-04 13:51 | 52.52620 | 5.60389 | 7611 ft | 300 kts | 234° |
| 2026-05-04 13:51 | 52.51425 | 5.57620 | 7085 ft | 294 kts | 234° |
| 2026-05-04 13:51 | 52.50283 | 5.54958 | 6939 ft | 275 kts | 235° |
| 2026-05-04 13:52 | 52.48126 | 5.49900 | 6170 ft | 270 kts | 235° |
| 2026-05-04 13:52 | 52.47054 | 5.47388 | 5907 ft | 267 kts | 235° |
| 2026-05-04 13:52 | 52.45993 | 5.44903 | 5598 ft | 265 kts | 235° |
| 2026-05-04 13:53 | 52.44948 | 5.42457 | 5315 ft | 263 kts | 235° |
| 2026-05-04 13:53 | 52.43895 | 5.39997 | 5185 ft | 258 kts | 235° |
| 2026-05-04 13:53 | 52.42875 | 5.37616 | 5095 ft | 255 kts | 235° |
| 2026-05-04 13:54 | 52.40782 | 5.32737 | 4884 ft | 265 kts | 235° |
| 2026-05-04 13:54 | 52.39738 | 5.30306 | 4770 ft | 263 kts | 235° |
| 2026-05-04 13:54 | 52.37631 | 5.25409 | 4577 ft | 263 kts | 235° |
| 2026-05-04 13:55 | 52.36574 | 5.22954 | 4480 ft | 263 kts | 235° |
| 2026-05-04 13:55 | 52.34468 | 5.18073 | 4302 ft | 263 kts | 235° |
| 2026-05-04 13:55 | 52.33414 | 5.15633 | 4206 ft | 262 kts | 235° |
| 2026-05-04 13:56 | 52.32364 | 5.13206 | 4103 ft | 261 kts | 235° |
| 2026-05-04 13:56 | 52.31317 | 5.10786 | 4018 ft | 261 kts | 235° |
| 2026-05-04 13:56 | 52.29238 | 5.05991 | 3857 ft | 255 kts | 235° |
| 2026-05-04 13:57 | 52.28205 | 5.03611 | 3769 ft | 259 kts | 235° |
| 2026-05-04 13:57 | 52.27156 | 5.01192 | 3648 ft | 261 kts | 235° |
| 2026-05-04 13:58 | 52.24024 | 4.94001 | 3371 ft | 258 kts | 235° |
| 2026-05-04 13:58 | 52.21321 | 4.90453 | 3176 ft | 248 kts | 194° |
| 2026-05-04 13:58 | 52.19655 | 4.90123 | 3085 ft | 234 kts | 184° |
| 2026-05-04 13:59 | 52.18078 | 4.90007 | 3019 ft | 221 kts | 183° |
| 2026-05-04 13:59 | 52.16553 | 4.89900 | 2942 ft | 218 kts | 184° |
| 2026-05-04 13:59 | 52.13504 | 4.89649 | 2797 ft | 219 kts | 184° |
| 2026-05-04 14:00 | 52.12044 | 4.89131 | 2686 ft | 212 kts | 211° |
| 2026-05-04 14:00 | 52.10818 | 4.85415 | 2563 ft | 183 kts | 269° |
| 2026-05-04 14:00 | 52.10854 | 4.83361 | 2516 ft | 182 kts | 274° |
| 2026-05-04 14:01 | 52.10974 | 4.81306 | 2459 ft | 183 kts | 285° |
| 2026-05-04 14:01 | 52.11647 | 4.79583 | 2406 ft | 182 kts | 314° |
| 2026-05-04 14:01 | 52.13559 | 4.76915 | 2238 ft | 183 kts | 347° |
| 2026-05-04 14:02 | 52.14800 | 4.76795 | 2200 ft | 173 kts | 357° |
| 2026-05-04 14:02 | 52.15961 | 4.76677 | 2126 ft | 165 kts | 356° |
| 2026-05-04 14:02 | 52.17085 | 4.76661 | 2036 ft | 163 kts | 0° |
| 2026-05-04 14:02 | 52.18218 | 4.76734 | 1992 ft | 162 kts | 2° |
| 2026-05-04 14:03 | 52.19341 | 4.76832 | 1915 ft | 164 kts | 2° |
| 2026-05-04 14:03 | 52.20485 | 4.76936 | 1735 ft | 164 kts | 2° |
| 2026-05-04 14:03 | 52.21622 | 4.77043 | 1505 ft | 163 kts | 2° |
| 2026-05-04 14:03 | 52.22738 | 4.77147 | 1295 ft | 159 kts | 2° |
| 2026-05-04 14:04 | 52.24759 | 4.77335 | 878 ft | 135 kts | 2° |
| 2026-05-04 14:04 | 52.25703 | 4.77421 | 692 ft | 137 kts | 2° |
| 2026-05-04 14:04 | 52.26647 | 4.77505 | 561 ft | 146 kts | 2° |
| 2026-05-04 14:05 | 52.28724 | 4.77695 | 143 ft | 136 kts | 2° |
| 2026-05-04 14:05 | 52.29582 | 4.77776 | -2 ft | 111 kts | 3° |
| 2026-05-04 14:05 | 52.30174 | 4.77832 | -2 ft | 60 kts | 3° |
| 2026-05-04 14:06 | 52.30426 | 4.77803 | -1 ft | 33 kts | 334° |
| 2026-05-04 14:06 | 52.30598 | 4.77662 | -2 ft | 26 kts | 333° |
| 2026-05-04 14:06 | 52.30751 | 4.77596 | -2 ft | 21 kts | 4° |
| 2026-05-04 14:06 | 52.30897 | 4.77612 | -2 ft | 21 kts | 2° |
| 2026-05-04 14:07 | 52.30917 | 4.77614 | -2 ft | 1 kts | 2° |
| 2026-05-04 14:07 | 52.30945 | 4.77616 | -2 ft | 7 kts | 2° |
| 2026-05-04 14:07 | 52.31006 | 4.77612 | -2 ft | 8 kts | 331° |
| 2026-05-04 14:07 | 52.31011 | 4.77518 | -2 ft | 11 kts | 234° |
| 2026-05-04 14:08 | 52.30925 | 4.77480 | -2 ft | 14 kts | 182° |
| 2026-05-04 14:08 | 52.30841 | 4.77422 | -2 ft | 14 kts | 253° |
| 2026-05-04 14:08 | 52.30851 | 4.77309 | -2 ft | 10 kts | 317° |
| 2026-05-04 14:08 | 52.30888 | 4.77302 | -2 ft | 0 kts | 4° |
| 2026-05-04 14:09 | 52.30895 | 4.77302 | -2 ft | 0 kts | 4° |
| 2026-05-04 14:09 | 52.30896 | 4.77302 | -2 ft | 0 kts | 3° |
| 2026-05-04 14:10 | 52.30897 | 4.77302 | -2 ft | 0 kts | 3° |